sensor_id;sensor_type;location;lat;lon;timestamp;P1;durP1;ratioP1;P2;durP2;ratioP2
23722;SDS011;12042;52.136;5.584;2023-04-24T05:43:25;6.05;;;5.65;;
23722;SDS011;12042;52.136;5.584;2023-04-24T05:45:51;6.15;;;5.63;;
23722;SDS011;12042;52.136;5.584;2023-04-24T05:48:18;5.47;;;5.07;;
23722;SDS011;12042;52.136;5.584;2023-04-24T05:50:44;6.20;;;5.57;;
23722;SDS011;12042;52.136;5.584;2023-04-24T05:53:09;5.82;;;5.32;;
23722;SDS011;12042;52.136;5.584;2023-04-24T05:55:35;5.18;;;4.88;;
23722;SDS011;12042;52.136;5.584;2023-04-24T05:58:01;5.75;;;5.35;;
23722;SDS011;12042;52.136;5.584;2023-04-24T06:00:27;5.53;;;5.13;;
23722;SDS011;12042;52.136;5.584;2023-04-24T06:02:53;5.05;;;4.75;;
23722;SDS011;12042;52.136;5.584;2023-04-24T06:05:20;6.00;;;5.40;;
23722;SDS011;12042;52.136;5.584;2023-04-24T06:07:45;5.78;;;5.32;;
23722;SDS011;12042;52.136;5.584;2023-04-24T06:10:11;6.10;;;5.50;;
23722;SDS011;12042;52.136;5.584;2023-04-24T06:12:37;5.80;;;5.30;;
23722;SDS011;12042;52.136;5.584;2023-04-24T06:15:03;6.13;;;5.47;;
23722;SDS011;12042;52.136;5.584;2023-04-24T06:17:29;5.88;;;5.35;;
23722;SDS011;12042;52.136;5.584;2023-04-24T06:19:55;6.90;;;6.20;;
23722;SDS011;12042;52.136;5.584;2023-04-24T06:22:21;6.30;;;5.78;;
23722;SDS011;12042;52.136;5.584;2023-04-24T06:24:47;6.38;;;5.63;;
23722;SDS011;12042;52.136;5.584;2023-04-24T06:27:13;7.45;;;5.82;;
23722;SDS011;12042;52.136;5.584;2023-04-24T06:29:39;6.13;;;5.63;;
23722;SDS011;12042;52.136;5.584;2023-04-24T06:32:04;5.70;;;5.20;;
23722;SDS011;12042;52.136;5.584;2023-04-24T06:34:30;6.30;;;5.70;;
23722;SDS011;12042;52.136;5.584;2023-04-24T06:36:57;6.22;;;5.68;;
23722;SDS011;12042;52.136;5.584;2023-04-24T06:39:23;5.72;;;5.13;;
23722;SDS011;12042;52.136;5.584;2023-04-24T06:41:48;5.75;;;5.03;;
23722;SDS011;12042;52.136;5.584;2023-04-24T06:44:14;4.97;;;4.43;;
23722;SDS011;12042;52.136;5.584;2023-04-24T06:46:40;4.15;;;3.75;;
23722;SDS011;12042;52.136;5.584;2023-04-24T06:49:06;3.95;;;3.65;;
23722;SDS011;12042;52.136;5.584;2023-04-24T06:51:32;3.97;;;3.65;;
23722;SDS011;12042;52.136;5.584;2023-04-24T06:53:58;2.92;;;2.72;;
23722;SDS011;12042;52.136;5.584;2023-04-24T06:56:24;3.00;;;2.80;;
23722;SDS011;12042;52.136;5.584;2023-04-24T06:58:50;5.20;;;4.72;;
23722;SDS011;12042;52.136;5.584;2023-04-24T07:01:16;6.10;;;5.53;;
23722;SDS011;12042;52.136;5.584;2023-04-24T07:03:42;8.18;;;6.95;;
23722;SDS011;12042;52.136;5.584;2023-04-24T07:06:08;12.90;;;9.35;;
23722;SDS011;12042;52.136;5.584;2023-04-24T07:08:36;13.95;;;10.70;;
23722;SDS011;12042;52.136;5.584;2023-04-24T07:11:02;20.23;;;12.82;;
23722;SDS011;12042;52.136;5.584;2023-04-24T07:13:28;19.45;;;12.80;;
23722;SDS011;12042;52.136;5.584;2023-04-24T07:15:53;15.95;;;12.48;;
23722;SDS011;12042;52.136;5.584;2023-04-24T07:18:21;18.15;;;12.98;;
23722;SDS011;12042;52.136;5.584;2023-04-24T07:20:47;19.17;;;13.13;;
23722;SDS011;12042;52.136;5.584;2023-04-24T07:23:15;18.17;;;12.73;;
23722;SDS011;12042;52.136;5.584;2023-04-24T07:25:40;18.60;;;13.10;;
23722;SDS011;12042;52.136;5.584;2023-04-24T07:28:06;17.88;;;13.43;;
23722;SDS011;12042;52.136;5.584;2023-04-24T07:30:31;23.45;;;13.63;;
23722;SDS011;12042;52.136;5.584;2023-04-24T07:32:58;19.98;;;13.88;;
23722;SDS011;12042;52.136;5.584;2023-04-24T07:35:24;22.48;;;13.57;;
23722;SDS011;12042;52.136;5.584;2023-04-24T07:37:51;20.90;;;13.98;;
23722;SDS011;12042;52.136;5.584;2023-04-24T07:40:20;24.10;;;14.38;;
23722;SDS011;12042;52.136;5.584;2023-04-24T07:42:46;23.80;;;14.82;;
23722;SDS011;12042;52.136;5.584;2023-04-24T07:45:13;21.92;;;15.18;;
23722;SDS011;12042;52.136;5.584;2023-04-24T07:47:39;26.33;;;14.80;;
23722;SDS011;12042;52.136;5.584;2023-04-24T07:50:08;24.13;;;14.75;;
23722;SDS011;12042;52.136;5.584;2023-04-24T07:52:34;25.27;;;14.98;;
23722;SDS011;12042;52.136;5.584;2023-04-24T07:55:00;26.50;;;13.68;;
23722;SDS011;12042;52.136;5.584;2023-04-24T07:57:27;20.70;;;13.52;;
23722;SDS011;12042;52.136;5.584;2023-04-24T07:59:53;21.83;;;13.45;;
23722;SDS011;12042;52.136;5.584;2023-04-24T08:02:19;23.73;;;12.75;;
23722;SDS011;12042;52.136;5.584;2023-04-24T08:04:46;21.45;;;13.32;;
23722;SDS011;12042;52.136;5.584;2023-04-24T08:07:12;23.20;;;12.82;;
23722;SDS011;12042;52.136;5.584;2023-04-24T08:09:38;24.38;;;13.43;;
23722;SDS011;12042;52.136;5.584;2023-04-24T08:12:03;21.67;;;12.25;;
23722;SDS011;12042;52.136;5.584;2023-04-24T08:14:29;25.77;;;13.63;;
23722;SDS011;12042;52.136;5.584;2023-04-24T08:16:55;23.02;;;13.27;;
23722;SDS011;12042;52.136;5.584;2023-04-24T08:19:25;22.70;;;13.50;;
23722;SDS011;12042;52.136;5.584;2023-04-24T08:21:51;20.00;;;12.68;;
23722;SDS011;12042;52.136;5.584;2023-04-24T08:24:16;23.20;;;12.70;;
23722;SDS011;12042;52.136;5.584;2023-04-24T08:26:42;21.65;;;13.98;;
23722;SDS011;12042;52.136;5.584;2023-04-24T08:29:07;20.20;;;11.60;;
23722;SDS011;12042;52.136;5.584;2023-04-24T08:31:33;15.63;;;9.38;;
23722;SDS011;12042;52.136;5.584;2023-04-24T08:33:58;16.25;;;8.00;;
23722;SDS011;12042;52.136;5.584;2023-04-24T08:36:25;17.02;;;8.05;;
23722;SDS011;12042;52.136;5.584;2023-04-24T08:38:51;16.73;;;8.05;;
23722;SDS011;12042;52.136;5.584;2023-04-24T08:41:17;19.08;;;8.43;;
23722;SDS011;12042;52.136;5.584;2023-04-24T08:43:45;20.02;;;9.00;;
23722;SDS011;12042;52.136;5.584;2023-04-24T08:46:11;21.77;;;8.27;;
23722;SDS011;12042;52.136;5.584;2023-04-24T08:48:38;18.67;;;8.95;;
23722;SDS011;12042;52.136;5.584;2023-04-24T08:51:05;17.33;;;7.70;;
23722;SDS011;12042;52.136;5.584;2023-04-24T08:53:32;13.65;;;6.38;;
23722;SDS011;12042;52.136;5.584;2023-04-24T08:55:57;14.77;;;6.00;;
23722;SDS011;12042;52.136;5.584;2023-04-24T08:58:27;19.63;;;5.93;;
23722;SDS011;12042;52.136;5.584;2023-04-24T09:00:56;11.80;;;6.45;;
23722;SDS011;12042;52.136;5.584;2023-04-24T09:03:23;18.42;;;7.00;;
23722;SDS011;12042;52.136;5.584;2023-04-24T09:05:49;25.55;;;7.72;;
23722;SDS011;12042;52.136;5.584;2023-04-24T09:08:18;19.27;;;7.03;;
23722;SDS011;12042;52.136;5.584;2023-04-24T09:10:45;24.48;;;7.60;;
23722;SDS011;12042;52.136;5.584;2023-04-24T09:13:10;21.67;;;7.97;;
23722;SDS011;12042;52.136;5.584;2023-04-24T09:15:37;23.98;;;8.10;;
23722;SDS011;12042;52.136;5.584;2023-04-24T09:18:03;19.58;;;7.30;;
23722;SDS011;12042;52.136;5.584;2023-04-24T09:20:29;17.77;;;5.45;;
23722;SDS011;12042;52.136;5.584;2023-04-24T09:22:58;12.75;;;4.13;;
23722;SDS011;12042;52.136;5.584;2023-04-24T09:25:31;14.13;;;3.83;;
23722;SDS011;12042;52.136;5.584;2023-04-24T09:28:00;13.88;;;3.40;;
23722;SDS011;12042;52.136;5.584;2023-04-24T09:30:27;11.85;;;3.80;;
23722;SDS011;12042;52.136;5.584;2023-04-24T09:33:09;14.25;;;3.88;;
23722;SDS011;12042;52.136;5.584;2023-04-24T09:35:41;9.60;;;3.45;;
23722;SDS011;12042;52.136;5.584;2023-04-24T09:38:08;15.50;;;4.00;;
23722;SDS011;12042;52.136;5.584;2023-04-24T09:40:34;14.85;;;4.35;;
23722;SDS011;12042;52.136;5.584;2023-04-24T09:43:00;11.45;;;3.95;;
23722;SDS011;12042;52.136;5.584;2023-04-24T09:45:28;13.77;;;3.85;;
23722;SDS011;12042;52.136;5.584;2023-04-24T09:48:01;12.15;;;3.50;;
23722;SDS011;12042;52.136;5.584;2023-04-24T09:50:29;9.52;;;3.80;;
23722;SDS011;12042;52.136;5.584;2023-04-24T09:53:01;6.63;;;2.97;;
23722;SDS011;12042;52.136;5.584;2023-04-24T09:55:29;9.73;;;3.13;;
23722;SDS011;12042;52.136;5.584;2023-04-24T09:57:59;14.32;;;3.30;;
23722;SDS011;12042;52.136;5.584;2023-04-24T10:00:27;8.23;;;2.70;;
23722;SDS011;12042;52.136;5.584;2023-04-24T10:02:54;11.55;;;3.35;;
23722;SDS011;12042;52.136;5.584;2023-04-24T10:05:24;10.88;;;3.35;;
23722;SDS011;12042;52.136;5.584;2023-04-24T10:07:55;9.07;;;2.90;;
23722;SDS011;12042;52.136;5.584;2023-04-24T10:10:22;8.68;;;3.53;;
23722;SDS011;12042;52.136;5.584;2023-04-24T10:12:48;7.90;;;2.80;;
23722;SDS011;12042;52.136;5.584;2023-04-24T10:15:15;10.27;;;3.40;;
23722;SDS011;12042;52.136;5.584;2023-04-24T10:17:45;14.75;;;3.25;;
23722;SDS011;12042;52.136;5.584;2023-04-24T10:20:24;8.55;;;3.45;;
23722;SDS011;12042;52.136;5.584;2023-04-24T10:22:52;14.07;;;3.53;;
23722;SDS011;12042;52.136;5.584;2023-04-24T10:25:22;9.57;;;3.05;;
23722;SDS011;12042;52.136;5.584;2023-04-24T10:27:50;7.00;;;3.00;;
23722;SDS011;12042;52.136;5.584;2023-04-24T10:30:17;7.63;;;2.70;;
23722;SDS011;12042;52.136;5.584;2023-04-24T10:32:44;8.80;;;2.80;;
23722;SDS011;12042;52.136;5.584;2023-04-24T10:35:14;8.57;;;2.97;;
23722;SDS011;12042;52.136;5.584;2023-04-24T10:37:42;9.05;;;2.80;;
23722;SDS011;12042;52.136;5.584;2023-04-24T10:40:10;9.95;;;2.50;;
23722;SDS011;12042;52.136;5.584;2023-04-24T10:42:40;4.55;;;2.60;;
23722;SDS011;12042;52.136;5.584;2023-04-24T10:45:15;4.82;;;2.13;;
23722;SDS011;12042;52.136;5.584;2023-04-24T10:47:43;5.15;;;2.42;;
23722;SDS011;12042;52.136;5.584;2023-04-24T10:50:18;5.07;;;2.17;;
23722;SDS011;12042;52.136;5.584;2023-04-24T10:52:45;7.38;;;1.80;;
23722;SDS011;12042;52.136;5.584;2023-04-24T10:55:15;2.60;;;1.50;;
23722;SDS011;12042;52.136;5.584;2023-04-24T10:58:00;5.63;;;1.33;;
23722;SDS011;12042;52.136;5.584;2023-04-24T11:00:29;6.75;;;1.30;;
23722;SDS011;12042;52.136;5.584;2023-04-24T11:02:55;5.18;;;1.10;;
23722;SDS011;12042;52.136;5.584;2023-04-24T11:05:22;3.33;;;1.23;;
23722;SDS011;12042;52.136;5.584;2023-04-24T11:08:21;3.90;;;1.40;;
23722;SDS011;12042;52.136;5.584;2023-04-24T11:10:58;3.45;;;1.30;;
23722;SDS011;12042;52.136;5.584;2023-04-24T11:18:52;4.03;;;1.15;;
23722;SDS011;12042;52.136;5.584;2023-04-24T11:21:25;4.15;;;0.88;;
23722;SDS011;12042;52.136;5.584;2023-04-24T11:23:56;1.67;;;1.30;;
23722;SDS011;12042;52.136;5.584;2023-04-24T11:26:22;5.05;;;1.50;;
23722;SDS011;12042;52.136;5.584;2023-04-24T11:29:05;2.10;;;1.10;;
23722;SDS011;12042;52.136;5.584;2023-04-24T11:31:41;6.68;;;1.90;;
23722;SDS011;12042;52.136;5.584;2023-04-24T11:34:18;3.60;;;1.70;;
23722;SDS011;12042;52.136;5.584;2023-04-24T11:36:44;4.25;;;1.77;;
23722;SDS011;12042;52.136;5.584;2023-04-24T11:39:11;5.00;;;1.67;;
23722;SDS011;12042;52.136;5.584;2023-04-24T11:41:37;7.07;;;1.48;;
23722;SDS011;12042;52.136;5.584;2023-04-24T11:44:06;4.57;;;1.65;;
23722;SDS011;12042;52.136;5.584;2023-04-24T11:46:33;4.13;;;1.67;;
23722;SDS011;12042;52.136;5.584;2023-04-24T11:48:59;3.38;;;1.20;;
23722;SDS011;12042;52.136;5.584;2023-04-24T11:51:25;4.88;;;1.58;;
23722;SDS011;12042;52.136;5.584;2023-04-24T11:53:53;4.88;;;1.23;;
23722;SDS011;12042;52.136;5.584;2023-04-24T11:56:22;1.85;;;1.30;;
23722;SDS011;12042;52.136;5.584;2023-04-24T11:58:51;3.17;;;1.40;;
23722;SDS011;12042;52.136;5.584;2023-04-24T12:01:18;4.22;;;1.30;;
23722;SDS011;12042;52.136;5.584;2023-04-24T12:03:49;2.05;;;1.20;;
23722;SDS011;12042;52.136;5.584;2023-04-24T12:06:16;4.75;;;1.67;;
23722;SDS011;12042;52.136;5.584;2023-04-24T12:08:42;2.38;;;1.33;;
23722;SDS011;12042;52.136;5.584;2023-04-24T12:11:11;3.97;;;1.27;;
23722;SDS011;12042;52.136;5.584;2023-04-24T12:13:40;1.08;;;0.60;;
23722;SDS011;12042;52.136;5.584;2023-04-24T12:16:07;1.55;;;0.60;;
23722;SDS011;12042;52.136;5.584;2023-04-24T12:18:32;1.13;;;0.70;;
23722;SDS011;12042;52.136;5.584;2023-04-24T12:23:57;0.77;;;0.60;;
23722;SDS011;12042;52.136;5.584;2023-04-24T12:26:23;2.38;;;0.75;;
23722;SDS011;12042;52.136;5.584;2023-04-24T12:28:49;2.03;;;0.90;;
23722;SDS011;12042;52.136;5.584;2023-04-24T12:31:18;5.88;;;1.08;;
23722;SDS011;12042;52.136;5.584;2023-04-24T12:33:46;4.13;;;1.35;;
23722;SDS011;12042;52.136;5.584;2023-04-24T12:36:11;3.53;;;0.95;;
23722;SDS011;12042;52.136;5.584;2023-04-24T12:38:38;4.57;;;1.02;;
23722;SDS011;12042;52.136;5.584;2023-04-24T12:41:07;3.25;;;0.98;;
23722;SDS011;12042;52.136;5.584;2023-04-24T12:43:34;4.78;;;1.00;;
23722;SDS011;12042;52.136;5.584;2023-04-24T12:46:01;2.80;;;1.30;;
23722;SDS011;12042;52.136;5.584;2023-04-24T12:48:27;5.70;;;1.55;;
23722;SDS011;12042;52.136;5.584;2023-04-24T12:50:53;4.95;;;1.30;;
23722;SDS011;12042;52.136;5.584;2023-04-24T12:53:20;5.63;;;1.10;;
23722;SDS011;12042;52.136;5.584;2023-04-24T12:55:45;4.85;;;1.40;;
23722;SDS011;12042;52.136;5.584;2023-04-24T12:58:17;3.92;;;1.25;;
23722;SDS011;12042;52.136;5.584;2023-04-24T13:00:44;8.13;;;1.73;;
23722;SDS011;12042;52.136;5.584;2023-04-24T13:03:10;5.32;;;1.38;;
23722;SDS011;12042;52.136;5.584;2023-04-24T13:05:36;3.10;;;1.48;;
23722;SDS011;12042;52.136;5.584;2023-04-24T13:08:02;4.88;;;1.60;;
23722;SDS011;12042;52.136;5.584;2023-04-24T13:10:28;7.40;;;1.55;;
23722;SDS011;12042;52.136;5.584;2023-04-24T13:12:53;8.75;;;2.15;;
23722;SDS011;12042;52.136;5.584;2023-04-24T13:15:19;9.05;;;2.25;;
23722;SDS011;12042;52.136;5.584;2023-04-24T13:17:45;7.30;;;2.20;;
23722;SDS011;12042;52.136;5.584;2023-04-24T13:20:10;10.63;;;2.40;;
23722;SDS011;12042;52.136;5.584;2023-04-24T13:22:36;7.57;;;2.03;;
23722;SDS011;12042;52.136;5.584;2023-04-24T13:25:02;17.90;;;3.25;;
23722;SDS011;12042;52.136;5.584;2023-04-24T13:27:28;7.57;;;2.85;;
23722;SDS011;12042;52.136;5.584;2023-04-24T13:29:53;12.65;;;3.00;;
23722;SDS011;12042;52.136;5.584;2023-04-24T13:32:19;11.38;;;3.20;;
23722;SDS011;12042;52.136;5.584;2023-04-24T13:34:45;13.00;;;3.25;;
23722;SDS011;12042;52.136;5.584;2023-04-24T13:37:11;9.05;;;2.42;;
23722;SDS011;12042;52.136;5.584;2023-04-24T13:39:36;9.80;;;2.72;;
23722;SDS011;12042;52.136;5.584;2023-04-24T13:42:02;9.77;;;2.55;;
23722;SDS011;12042;52.136;5.584;2023-04-24T13:44:28;12.07;;;3.58;;
23722;SDS011;12042;52.136;5.584;2023-04-24T13:46:54;13.55;;;2.70;;
23722;SDS011;12042;52.136;5.584;2023-04-24T13:49:22;10.00;;;3.00;;
23722;SDS011;12042;52.136;5.584;2023-04-24T13:51:50;5.72;;;2.55;;
23722;SDS011;12042;52.136;5.584;2023-04-24T13:54:16;8.63;;;2.35;;
23722;SDS011;12042;52.136;5.584;2023-04-24T13:56:42;7.63;;;2.40;;
23722;SDS011;12042;52.136;5.584;2023-04-24T13:59:07;10.55;;;2.83;;
23722;SDS011;12042;52.136;5.584;2023-04-24T14:01:33;10.25;;;3.17;;
23722;SDS011;12042;52.136;5.584;2023-04-24T14:03:59;9.43;;;2.80;;
23722;SDS011;12042;52.136;5.584;2023-04-24T14:06:25;11.77;;;3.40;;
23722;SDS011;12042;52.136;5.584;2023-04-24T14:08:51;11.55;;;3.10;;
23722;SDS011;12042;52.136;5.584;2023-04-24T14:11:17;6.60;;;2.78;;
23722;SDS011;12042;52.136;5.584;2023-04-24T14:13:43;10.88;;;2.95;;
23722;SDS011;12042;52.136;5.584;2023-04-24T14:16:09;10.73;;;2.92;;
23722;SDS011;12042;52.136;5.584;2023-04-24T14:18:35;14.10;;;3.13;;
23722;SDS011;12042;52.136;5.584;2023-04-24T14:21:04;9.88;;;3.10;;
23722;SDS011;12042;52.136;5.584;2023-04-24T14:23:30;9.38;;;3.22;;
23722;SDS011;12042;52.136;5.584;2023-04-24T14:25:56;7.10;;;3.20;;
23722;SDS011;12042;52.136;5.584;2023-04-24T14:28:23;13.88;;;3.60;;
23722;SDS011;12042;52.136;5.584;2023-04-24T14:30:49;6.68;;;2.53;;
23722;SDS011;12042;52.136;5.584;2023-04-24T14:33:15;6.72;;;2.42;;
23722;SDS011;12042;52.136;5.584;2023-04-24T14:35:40;9.90;;;3.17;;
23722;SDS011;12042;52.136;5.584;2023-04-24T14:38:09;7.57;;;3.47;;
23722;SDS011;12042;52.136;5.584;2023-04-24T14:40:35;10.63;;;3.53;;
23722;SDS011;12042;52.136;5.584;2023-04-24T14:43:02;11.32;;;3.85;;
23722;SDS011;12042;52.136;5.584;2023-04-24T14:45:28;8.45;;;3.47;;
23722;SDS011;12042;52.136;5.584;2023-04-24T14:47:53;10.77;;;3.63;;
23722;SDS011;12042;52.136;5.584;2023-04-24T14:50:20;17.52;;;4.35;;
23722;SDS011;12042;52.136;5.584;2023-04-24T14:52:45;9.93;;;4.18;;
23722;SDS011;12042;52.136;5.584;2023-04-24T14:55:11;12.60;;;4.28;;
23722;SDS011;12042;52.136;5.584;2023-04-24T14:57:37;9.40;;;3.15;;
23722;SDS011;12042;52.136;5.584;2023-04-24T15:00:04;9.05;;;3.50;;
23722;SDS011;12042;52.136;5.584;2023-04-24T15:02:35;8.50;;;3.45;;
